Time;durP1;ratioP1;P1;durP2;ratioP2;P2;SDS_P1;SDS_P2;PMS_P1;PMS_P2;Temp;Humidity;BMP_temperature;BMP_pressure;BME280_temperature;BME280_humidity;BME280_pressure;Samples;Min_cycle;Max_cycle;Signal;HPM_P1;HPM_P2
2021/06/18 00:04:50;;;;;;;;;16.25;15.25;;;;;;;;8825652;40;11194;-60
2021/06/18 00:10:52;;;;;;;;;19.67;19.67;;;;;;;;8824449;40;10666;-60
2021/06/18 00:16:54;;;;;;;;;22.00;20.33;;;;;;;;8826516;40;10679;-60
2021/06/18 00:22:56;;;;;;;;;14.33;14.33;;;;;;;;8829616;40;10641;-60
2021/06/18 00:28:58;;;;;;;;;20.00;18.00;;;;;;;;8828805;40;10654;-60
2021/06/18 00:35:00;;;;;;;;;22.00;21.00;;;;;;;;8815789;40;10751;-61
2021/06/18 00:41:06;;;;;;;;;14.00;14.00;;;;;;;;8824406;40;10367;-61
2021/06/18 00:47:15;;;;;;;;;16.00;13.00;;;;;;;;8824707;40;9970;-61
2021/06/18 00:53:17;;;;;;;;;18.00;15.67;;;;;;;;8823969;40;10249;-60
2021/06/18 00:59:22;;;;;;;;;18.00;16.00;;;;;;;;8823666;40;10813;-61
2021/06/18 01:05:25;;;;;;;;;20.00;15.67;;;;;;;;8824309;40;10511;-60
2021/06/18 01:11:39;;;;;;;;;13.50;12.25;;;;;;;;8822967;40;10815;-60
2021/06/18 01:17:53;;;;;;;;;17.67;16.00;;;;;;;;8824632;40;10674;-60
2021/06/18 01:24:03;;;;;;;;;8.67;6.67;;;;;;;;8826563;40;10115;-60
2021/06/18 01:30:16;;;;;;;;;20.00;17.67;;;;;;;;8828377;40;10576;-60
2021/06/18 01:36:21;;;;;;;;;11.33;10.67;;;;;;;;8827126;40;10696;-60
2021/06/18 01:42:24;;;;;;;;;12.25;12.00;;;;;;;;8825780;40;10882;-60
2021/06/18 01:48:28;;;;;;;;;14.67;14.67;;;;;;;;8826706;40;10432;-60
2021/06/18 01:54:32;;;;;;;;;16.00;16.00;;;;;;;;8826586;40;10184;-61
2021/06/18 02:00:40;;;;;;;;;15.67;14.00;;;;;;;;8826496;40;10161;-60
2021/06/18 02:06:45;;;;;;;;;10.75;10.75;;;;;;;;8824683;40;10952;-60
2021/06/18 02:12:48;;;;;;;;;12.33;12.33;;;;;;;;8826156;40;10284;-61
2021/06/18 02:18:55;;;;;;;;;12.33;12.33;;;;;;;;8825975;40;10785;-61
2021/06/18 02:24:59;;;;;;;;;14.00;14.00;;;;;;;;8825982;40;10745;-61
2021/06/18 02:31:02;;;;;;;;;16.25;14.75;;;;;;;;8828620;40;11082;-61
2021/06/18 02:37:07;;;;;;;;;13.50;12.25;;;;;;;;8824599;40;10959;-61
2021/06/18 02:43:09;;;;;;;;;12.00;11.33;;;;;;;;8824981;40;10191;-61
2021/06/18 02:49:20;;;;;;;;;13.00;12.00;;;;;;;;8826508;40;11048;-61
2021/06/18 02:55:26;;;;;;;;;10.75;10.50;;;;;;;;8826339;40;10868;-60
2021/06/18 03:01:32;;;;;;;;;13.00;10.00;;;;;;;;8834202;40;10858;-62
2021/06/18 03:07:37;;;;;;;;;13.50;13.50;;;;;;;;8824670;40;10996;-61
2021/06/18 03:13:42;;;;;;;;;13.75;13.75;;;;;;;;8824626;40;10815;-61
2021/06/18 03:19:51;;;;;;;;;6.67;6.67;;;;;;;;8825500;40;10147;-61
2021/06/18 03:25:54;;;;;;;;;10.50;9.75;;;;;;;;8337753;40;10000782;-61
2021/06/18 03:31:59;;;;;;;;;16.75;11.50;;;;;;;;8826850;40;10911;-60
2021/06/18 03:38:02;;;;;;;;;12.00;12.00;;;;;;;;8823009;40;11327;-61
2021/06/18 03:44:05;;;;;;;;;13.50;13.50;;;;;;;;8824793;40;10744;-61
2021/06/18 03:50:09;;;;;;;;;11.25;8.50;;;;;;;;8825289;40;10888;-60
2021/06/18 03:56:12;;;;;;;;;15.50;13.25;;;;;;;;8824610;40;10807;-60
2021/06/18 04:02:16;;;;;;;;;13.75;12.75;;;;;;;;9902727;23;10618;-60
2021/06/18 04:08:20;;;;;;;;;12.00;11.25;;;;;;;;8822090;40;10764;-60
2021/06/18 04:14:22;;;;;;;;;11.50;11.50;;;;;;;;8824682;40;10739;-60
2021/06/18 04:20:25;;;;;;;;;13.50;13.25;;;;;;;;8825678;40;10724;-60
2021/06/18 04:26:27;;;;;;;;;9.50;9.50;;;;;;;;8825339;40;10537;-62
2021/06/18 04:32:29;;;;;;;;;13.75;13.00;;;;;;;;8823777;40;10675;-61
2021/06/18 04:38:31;;;;;;;;;10.50;10.50;;;;;;;;8823798;40;10370;-61
2021/06/18 04:44:34;;;;;;;;;10.75;9.00;;;;;;;;8823741;40;10334;-61
2021/06/18 04:50:37;;;;;;;;;12.75;11.25;;;;;;;;8825324;40;10479;-61
2021/06/18 04:56:40;;;;;;;;;12.00;11.75;;;;;;;;8822435;40;10416;-61
2021/06/18 05:02:43;;;;;;;;;8.75;8.75;;;;;;;;8823209;40;10269;-61
2021/06/18 05:08:45;;;;;;;;;11.00;10.00;;;;;;;;8823847;40;10491;-60
2021/06/18 05:14:47;;;;;;;;;8.50;8.50;;;;;;;;8813880;40;10395;-61
2021/06/18 05:20:49;;;;;;;;;10.00;10.00;;;;;;;;8824153;40;10452;-62
2021/06/18 05:26:51;;;;;;;;;13.00;10.75;;;;;;;;8823833;40;10456;-62
2021/06/18 05:32:53;;;;;;;;;11.00;9.75;;;;;;;;8822725;40;10572;-61
2021/06/18 05:38:55;;;;;;;;;12.25;11.75;;;;;;;;8823572;40;10659;-62
2021/06/18 05:44:58;;;;;;;;;12.75;12.75;;;;;;;;8819855;40;10697;-60
2021/06/18 05:51:00;;;;;;;;;12.00;12.00;;;;;;;;8834458;40;10371;-61
2021/06/18 05:57:03;;;;;;;;;5.75;4.75;;;;;;;;8822398;40;10538;-62
2021/06/18 06:03:04;;;;;;;;;14.75;13.25;;;;;;;;8819421;40;10638;-62
2021/06/18 06:09:06;;;;;;;;;14.75;14.75;;;;;;;;8822194;40;10681;-63
2021/06/18 06:15:09;;;;;;;;;16.00;15.00;;;;;;;;8823622;40;10607;-61
2021/06/18 06:21:11;;;;;;;;;14.25;13.25;;;;;;;;8824522;40;10621;-60
2021/06/18 06:27:13;;;;;;;;;25.50;24.75;;;;;;;;8821835;40;11059;-60
2021/06/18 06:33:15;;;;;;;;;14.50;13.25;;;;;;;;8823895;40;10768;-62
2021/06/18 06:39:17;;;;;;;;;13.00;13.00;;;;;;;;8824590;40;10554;-60
2021/06/18 06:45:19;;;;;;;;;14.75;13.50;;;;;;;;8824502;40;10723;-63
2021/06/18 06:51:21;;;;;;;;;15.50;15.50;;;;;;;;8827018;40;10672;-61
2021/06/18 06:57:23;;;;;;;;;22.75;19.75;;;;;;;;8830129;40;10844;-61
2021/06/18 07:03:26;;;;;;;;;19.00;16.75;;;;;;;;8841531;40;10947;-62
2021/06/18 07:09:29;;;;;;;;;18.25;14.75;;;;;;;;8822378;40;11049;-61
2021/06/18 07:15:31;;;;;;;;;20.00;17.75;;;;;;;;8817577;40;10710;-63
2021/06/18 07:21:36;;;;;;;;;18.25;17.75;;;;;;;;8820694;40;10821;-65
2021/06/18 07:27:37;;;;;;;;;27.50;24.25;;;;;;;;8821106;40;11124;-61
2021/06/18 07:33:42;;;;;;;;;15.25;14.75;;;;;;;;8328947;40;20002016;-66
2021/06/18 07:39:44;;;;;;;;;16.75;16.75;;;;;;;;8820118;40;10636;-61
2021/06/18 07:46:01;;;;;;;;;21.75;20.00;;;;;;;;8819553;40;10830;-61
2021/06/18 07:52:12;;;;;;;;;14.50;13.25;;;;;;;;8839755;40;10533;-61
2021/06/18 07:58:14;;;;;;;;;13.00;12.50;;;;;;;;8814585;40;10708;-61
2021/06/18 08:04:16;;;;;;;;;21.00;19.25;;;;;;;;8819403;40;10787;-63
2021/06/18 08:10:19;;;;;;;;;22.50;19.50;;;;;;;;8819668;40;10959;-63
2021/06/18 08:16:22;;;;;;;;;32.25;27.50;;;;;;;;8818525;40;11659;-61
2021/06/18 08:22:24;;;;;;;;;28.00;27.00;;;;;;;;8828058;40;10966;-65
2021/06/18 08:28:26;;;;;;;;;18.00;18.00;;;;;;;;8819239;40;12337;-61
2021/06/18 08:34:28;;;;;;;;;18.50;15.00;;;;;;;;8812411;40;10804;-63
2021/06/18 08:40:32;;;;;;;;;20.75;17.25;;;;;;;;8820217;40;11005;-62
2021/06/18 08:46:35;;;;;;;;;22.50;22.25;;;;;;;;8817496;40;10637;-61
2021/06/18 08:52:45;;;;;;;;;24.25;24.25;;;;;;;;8818335;40;10900;-62
2021/06/18 08:58:47;;;;;;;;;24.75;21.00;;;;;;;;8817821;40;11787;-62
2021/06/18 09:05:01;;;;;;;;;24.33;21.67;;;;;;;;8819796;40;10819;-62
2021/06/18 09:11:03;;;;;;;;;30.25;26.50;;;;;;;;8819426;40;11136;-62
2021/06/18 09:17:12;;;;;;;;;20.50;18.75;;;;;;;;8819496;40;10677;-63
2021/06/18 09:23:36;;;;;;;;;26.50;25.25;;;;;;;;8816032;40;10737;-63
2021/06/18 09:29:39;;;;;;;;;22.50;21.25;;;;;;;;8816348;40;10829;-62
2021/06/18 09:36:02;;;;;;;;;19.25;18.75;;;;;;;;8817156;40;10808;-64
2021/06/18 09:42:10;;;;;;;;;25.00;21.25;;;;;;;;8819975;40;10797;-61
2021/06/18 09:48:14;;;;;;;;;21.75;18.00;;;;;;;;8825197;40;10866;-64
2021/06/18 09:54:18;;;;;;;;;23.00;21.00;;;;;;;;8830360;40;10786;-63
2021/06/18 10:00:22;;;;;;;;;24.25;22.75;;;;;;;;8832946;40;10792;-61
2021/06/18 10:06:27;;;;;;;;;23.25;23.25;;;;;;;;8834632;40;10776;-63
2021/06/18 10:12:30;;;;;;;;;27.00;25.00;;;;;;;;8810614;40;11050;-62
2021/06/18 10:18:32;;;;;;;;;31.00;28.25;;;;;;;;8818302;40;10817;-60
2021/06/18 10:24:41;;;;;;;;;29.00;26.50;;;;;;;;8820958;40;11305;-63
2021/06/18 10:30:51;;;;;;;;;33.75;31.00;;;;;;;;8822406;40;10956;-61
2021/06/18 10:37:13;;;;;;;;;27.00;27.00;;;;;;;;8820856;40;10879;-64
2021/06/18 10:43:15;;;;;;;;;32.00;29.50;;;;;;;;8820195;40;10657;-62
2021/06/18 10:49:17;;;;;;;;;33.00;31.50;;;;;;;;8822145;40;10549;-62
2021/06/18 10:55:19;;;;;;;;;28.50;28.50;;;;;;;;8821186;40;10921;-62
2021/06/18 11:01:31;;;;;;;;;28.50;26.50;;;;;;;;8816600;40;10622;-62
2021/06/18 11:07:39;;;;;;;;;28.00;26.25;;;;;;;;8821897;40;10435;-62
2021/06/18 11:14:04;;;;;;;;;28.50;28.50;;;;;;;;8819745;40;11226;-63
2021/06/18 11:20:14;;;;;;;;;24.00;20.75;;;;;;;;8805242;40;10482;-61
2021/06/18 11:26:22;;;;;;;;;25.25;24.50;;;;;;;;8808013;40;10765;-62
2021/06/18 11:32:43;;;;;;;;;24.25;24.25;;;;;;;;8818828;40;10636;-62
2021/06/18 11:38:47;;;;;;;;;27.50;27.25;;;;;;;;8819770;40;10622;-60
2021/06/18 11:44:49;;;;;;;;;27.00;27.00;;;;;;;;8819193;40;10647;-61
2021/06/18 11:50:52;;;;;;;;;24.25;24.00;;;;;;;;8821786;40;11051;-61
2021/06/18 11:57:02;;;;;;;;;26.00;25.50;;;;;;;;8819693;40;10672;-62
2021/06/18 12:03:05;;;;;;;;;22.75;22.75;;;;;;;;8821108;40;10934;-63
2021/06/18 12:09:17;;;;;;;;;22.00;19.67;;;;;;;;8812308;40;11223;-62
2021/06/18 12:15:21;;;;;;;;;18.00;16.33;;;;;;;;8818346;40;10230;-61
2021/06/18 12:21:27;;;;;;;;;24.00;24.00;;;;;;;;8821165;40;11102;-62
2021/06/18 12:27:31;;;;;;;;;17.67;16.00;;;;;;;;8814536;40;10027;-63
2021/06/18 12:33:33;;;;;;;;;14.50;13.50;;;;;;;;8816123;40;10911;-63
2021/06/18 12:39:55;;;;;;;;;17.67;17.00;;;;;;;;8818112;40;10744;-61
2021/06/18 12:45:57;;;;;;;;;16.67;13.67;;;;;;;;8821487;40;10481;-61
2021/06/18 12:52:14;;;;;;;;;15.50;15.50;;;;;;;;8820890;40;11031;-63
2021/06/18 12:58:26;;;;;;;;;20.67;19.67;;;;;;;;8820641;40;10474;-61
2021/06/18 13:04:32;;;;;;;;;25.00;23.33;;;;;;;;8811472;40;10618;-62
2021/06/18 13:10:38;;;;;;;;;18.00;16.33;;;;;;;;8819549;40;10119;-60
2021/06/18 13:16:42;;;;;;;;;22.33;21.33;;;;;;;;8820263;40;10142;-62
2021/06/18 13:22:44;;;;;;;;;21.67;21.67;;;;;;;;8823206;40;10151;-61
2021/06/18 13:28:50;;;;;;;;;15.25;14.75;;;;;;;;8823181;40;10973;-61
2021/06/18 13:34:54;;;;;;;;;17.00;17.00;;;;;;;;8824789;40;10773;-61
2021/06/18 13:40:55;;;;;;;;;14.25;14.25;;;;;;;;8821975;40;10981;-62
2021/06/18 13:46:57;;;;;;;;;22.25;22.25;;;;;;;;8799929;40;11422;-65
2021/06/18 13:53:00;;;;;;;;;15.50;15.50;;;;;;;;8801958;40;10805;-65
2021/06/18 13:59:02;;;;;;;;;15.25;14.25;;;;;;;;8836961;40;10669;-63
2021/06/18 14:05:05;;;;;;;;;18.00;18.00;;;;;;;;8830157;40;10536;-62
2021/06/18 14:11:09;;;;;;;;;18.50;18.50;;;;;;;;8824423;40;10694;-62
2021/06/18 14:17:16;;;;;;;;;28.00;20.50;;;;;;;;8825042;40;10555;-65
2021/06/18 14:23:19;;;;;;;;;9.25;8.25;;;;;;;;8825132;40;10499;-63
2021/06/18 14:29:21;;;;;;;;;11.25;10.25;;;;;;;;8824439;40;11299;-61
2021/06/18 14:35:23;;;;;;;;;6.75;6.75;;;;;;;;8823990;40;10775;-63
2021/06/18 14:41:25;;;;;;;;;12.00;10.00;;;;;;;;8824283;40;10611;-64
2021/06/18 14:47:27;;;;;;;;;12.25;11.75;;;;;;;;8824602;40;10548;-63
2021/06/18 14:53:29;;;;;;;;;9.00;9.00;;;;;;;;8825011;40;10343;-64
2021/06/18 14:59:32;;;;;;;;;13.50;10.75;;;;;;;;8823746;40;10701;-63
2021/06/18 15:05:34;;;;;;;;;9.00;9.00;;;;;;;;8824764;40;10509;-61
2021/06/18 15:11:36;;;;;;;;;11.50;11.50;;;;;;;;8827636;40;10598;-63
2021/06/18 15:17:38;;;;;;;;;7.50;7.50;;;;;;;;8831583;40;10397;-65
2021/06/18 15:23:40;;;;;;;;;8.75;8.50;;;;;;;;8824596;40;10437;-63
2021/06/18 15:29:41;;;;;;;;;14.25;13.00;;;;;;;;8823752;40;10460;-63
2021/06/18 15:35:43;;;;;;;;;16.75;15.50;;;;;;;;8824692;40;10573;-63
2021/06/18 15:41:45;;;;;;;;;20.00;18.25;;;;;;;;8823842;40;10988;-61
2021/06/18 15:47:47;;;;;;;;;24.33;24.00;;;;;;;;8824779;40;10599;-63
2021/06/18 15:53:49;;;;;;;;;9.75;9.75;;;;;;;;8824105;40;10773;-61
2021/06/18 15:59:51;;;;;;;;;15.67;15.67;;;;;;;;8823343;40;10394;-62
2021/06/18 16:05:55;;;;;;;;;11.33;10.67;;;;;;;;8823792;40;10406;-62
2021/06/18 16:11:57;;;;;;;;;14.33;14.33;;;;;;;;8823178;40;10052;-62
2021/06/18 16:18:00;;;;;;;;;16.00;13.67;;;;;;;;8822937;40;9969;-61
2021/06/18 16:24:02;;;;;;;;;18.33;15.67;;;;;;;;8824648;40;10031;-61
2021/06/18 16:30:05;;;;;;;;;21.33;20.67;;;;;;;;8822107;40;10066;-60
2021/06/18 16:36:07;;;;;;;;;16.67;15.67;;;;;;;;8823696;40;10072;-63
2021/06/18 16:42:09;;;;;;;;;17.00;16.67;;;;;;;;8824556;40;9949;-63
2021/06/18 16:48:11;;;;;;;;;15.33;15.00;;;;;;;;8823518;40;9988;-63
2021/06/18 16:54:13;;;;;;;;;13.33;13.33;;;;;;;;8830791;40;10049;-63
2021/06/18 17:00:16;;;;;;;;;22.00;19.67;;;;;;;;8822099;40;10084;-61
2021/06/18 17:06:19;;;;;;;;;13.00;13.00;;;;;;;;8824086;40;10116;-63
2021/06/18 17:12:51;;;;;;;;;21.67;18.33;;;;;;;;8822467;40;9996;-62
2021/06/18 17:18:53;;;;;;;;;22.33;20.67;;;;;;;;8822661;40;9949;-62
2021/06/18 17:24:55;;;;;;;;;20.00;17.67;;;;;;;;8820994;40;10117;-61
2021/06/18 17:31:02;;;;;;;;;28.00;23.00;;;;;;;;8821853;40;10834;-60
2021/06/18 17:37:04;;;;;;;;;25.33;24.33;;;;;;;;8822746;40;10252;-63
2021/06/18 17:43:06;;;;;;;;;22.00;21.00;;;;;;;;8820896;40;10036;-62
2021/06/18 17:49:09;;;;;;;;;22.00;19.67;;;;;;;;8821994;40;10287;-62
2021/06/18 17:55:12;;;;;;;;;24.00;20.33;;;;;;;;8821779;40;10075;-65
2021/06/18 18:01:14;;;;;;;;;27.67;25.67;;;;;;;;8820838;40;10058;-62
2021/06/18 18:07:16;;;;;;;;;22.67;21.33;;;;;;;;8824195;40;10802;-61
2021/06/18 18:13:18;;;;;;;;;25.33;23.33;;;;;;;;8824656;40;10834;-63
2021/06/18 18:19:20;;;;;;;;;20.00;20.00;;;;;;;;8825902;40;9971;-61
2021/06/18 18:25:22;;;;;;;;;22.67;22.67;;;;;;;;8825324;40;10075;-61
2021/06/18 18:31:27;;;;;;;;;28.33;27.00;;;;;;;;8824775;40;10023;-61
2021/06/18 18:37:31;;;;;;;;;31.00;26.67;;;;;;;;8826147;40;10077;-62
2021/06/18 18:43:33;;;;;;;;;26.67;25.67;;;;;;;;8823214;40;9983;-61
2021/06/18 18:49:35;;;;;;;;;28.00;27.00;;;;;;;;8825059;40;9929;-61
2021/06/18 18:55:37;;;;;;;;;32.33;28.33;;;;;;;;8825684;40;10086;-62
2021/06/18 19:01:39;;;;;;;;;28.33;26.00;;;;;;;;8825091;40;10047;-62
2021/06/18 19:07:44;;;;;;;;;25.67;22.33;;;;;;;;8826308;40;10320;-61
2021/06/18 19:13:46;;;;;;;;;34.33;32.67;;;;;;;;8824787;40;10542;-62
2021/06/18 19:19:49;;;;;;;;;33.00;32.00;;;;;;;;8824239;40;9901;-62
2021/06/18 19:25:51;;;;;;;;;30.67;28.33;;;;;;;;8824130;40;9983;-63
2021/06/18 19:31:53;;;;;;;;;33.00;30.00;;;;;;;;8823518;40;10058;-61
2021/06/18 19:37:55;;;;;;;;;29.33;29.33;;;;;;;;8831616;40;10058;-65
2021/06/18 19:43:58;;;;;;;;;28.67;26.67;;;;;;;;8823641;40;10000;-63
2021/06/18 19:50:00;;;;;;;;;28.33;25.00;;;;;;;;8824012;40;9913;-60
2021/06/18 19:56:02;;;;;;;;;29.00;28.33;;;;;;;;8823692;40;10060;-61
2021/06/18 20:02:04;;;;;;;;;33.00;28.33;;;;;;;;8822736;40;10171;-62
2021/06/18 20:08:08;;;;;;;;;26.67;25.00;;;;;;;;8824646;40;10108;-62
2021/06/18 20:14:10;;;;;;;;;26.33;23.33;;;;;;;;8822661;40;10055;-63
2021/06/18 20:20:13;;;;;;;;;32.00;24.67;;;;;;;;8824905;40;9920;-62
2021/06/18 20:26:15;;;;;;;;;24.67;23.00;;;;;;;;8823296;40;10083;-62
2021/06/18 20:32:18;;;;;;;;;23.33;23.33;;;;;;;;8822464;40;10073;-62
2021/06/18 20:38:20;;;;;;;;;24.67;24.67;;;;;;;;8824449;40;10071;-62
2021/06/18 20:44:22;;;;;;;;;17.67;16.67;;;;;;;;8822684;40;10078;-60
2021/06/18 20:50:24;;;;;;;;;21.67;18.67;;;;;;;;8823301;40;10585;-60
2021/06/18 20:56:27;;;;;;;;;19.33;18.00;;;;;;;;8823233;40;10023;-62
2021/06/18 21:02:29;;;;;;;;;18.00;17.67;;;;;;;;8821960;40;10026;-62
2021/06/18 21:08:31;;;;;;;;;20.00;20.00;;;;;;;;8823304;40;10077;-60
2021/06/18 21:14:34;;;;;;;;;14.67;14.67;;;;;;;;8822940;40;9954;-62
2021/06/18 21:20:37;;;;;;;;;22.67;22.67;;;;;;;;8821782;40;10219;-62
2021/06/18 21:26:39;;;;;;;;;16.33;16.33;;;;;;;;8822438;40;10051;-60
2021/06/18 21:32:41;;;;;;;;;15.67;13.67;;;;;;;;8822059;40;10061;-59
2021/06/18 21:38:43;;;;;;;;;16.00;16.00;;;;;;;;8824325;40;11215;-60
2021/06/18 21:44:45;;;;;;;;;15.00;15.00;;;;;;;;8827124;40;10572;-61
2021/06/18 21:50:47;;;;;;;;;15.67;13.00;;;;;;;;8825390;40;10740;-61
2021/06/18 21:56:49;;;;;;;;;21.00;21.00;;;;;;;;8824494;40;10099;-61
2021/06/18 22:02:52;;;;;;;;;20.67;18.00;;;;;;;;8825143;40;10038;-61
2021/06/18 22:08:54;;;;;;;;;16.33;16.33;;;;;;;;8826708;40;10150;-62
2021/06/18 22:14:56;;;;;;;;;24.33;20.00;;;;;;;;8824931;40;10083;-62
2021/06/18 22:20:58;;;;;;;;;22.33;20.00;;;;;;;;8825243;40;10054;-60
2021/06/18 22:27:00;;;;;;;;;25.00;19.00;;;;;;;;8825430;40;10056;-61
2021/06/18 22:33:08;;;;;;;;;18.67;18.33;;;;;;;;8832339;40;11130;-60
2021/06/18 22:39:10;;;;;;;;;20.00;16.67;;;;;;;;8826408;40;10218;-60
2021/06/18 22:45:13;;;;;;;;;14.00;13.67;;;;;;;;8825687;40;10625;-61
2021/06/18 22:51:15;;;;;;;;;16.33;16.33;;;;;;;;8825524;40;11697;-62
2021/06/18 22:57:19;;;;;;;;;13.00;11.33;;;;;;;;8823997;40;10493;-61
2021/06/18 23:03:21;;;;;;;;;23.33;18.33;;;;;;;;8823966;40;10398;-60
2021/06/18 23:09:24;;;;;;;;;16.33;15.00;;;;;;;;8825641;40;10267;-60
2021/06/18 23:15:27;;;;;;;;;17.67;15.67;;;;;;;;8824066;40;10466;-61
2021/06/18 23:21:29;;;;;;;;;17.67;15.67;;;;;;;;8825928;40;10668;-60
2021/06/18 23:27:31;;;;;;;;;17.75;15.50;;;;;;;;8824151;40;11554;-62
2021/06/18 23:33:33;;;;;;;;;15.67;14.00;;;;;;;;8824587;40;10608;-62
2021/06/18 23:39:35;;;;;;;;;13.00;13.00;;;;;;;;8825805;40;10804;-61
2021/06/18 23:45:38;;;;;;;;;15.00;15.00;;;;;;;;8830252;40;10057;-60
2021/06/18 23:51:40;;;;;;;;;18.00;14.75;;;;;;;;8824807;40;11455;-61
2021/06/18 23:57:43;;;;;;;;;14.25;12.75;;;;;;;;8823964;40;11058;-61
